sensor_id;sensor_type;location;lat;lon;timestamp;P1;durP1;ratioP1;P2;durP2;ratioP2
8927;SDS011;4499;48.304;11.902;2022-07-29T00:01:41;4.33;;;2.00;;
8927;SDS011;4499;48.304;11.902;2022-07-29T00:04:10;2.70;;;1.90;;
8927;SDS011;4499;48.304;11.902;2022-07-29T00:06:39;1.87;;;1.70;;
8927;SDS011;4499;48.304;11.902;2022-07-29T00:09:09;2.07;;;1.87;;
8927;SDS011;4499;48.304;11.902;2022-07-29T00:11:37;1.97;;;1.70;;
8927;SDS011;4499;48.304;11.902;2022-07-29T00:14:05;2.97;;;1.73;;
8927;SDS011;4499;48.304;11.902;2022-07-29T00:16:36;4.53;;;1.77;;
8927;SDS011;4499;48.304;11.902;2022-07-29T00:19:04;2.23;;;1.67;;
8927;SDS011;4499;48.304;11.902;2022-07-29T00:21:33;1.93;;;1.50;;
8927;SDS011;4499;48.304;11.902;2022-07-29T00:24:01;1.60;;;1.50;;
8927;SDS011;4499;48.304;11.902;2022-07-29T00:26:29;1.57;;;1.40;;
8927;SDS011;4499;48.304;11.902;2022-07-29T00:28:58;1.77;;;1.47;;
8927;SDS011;4499;48.304;11.902;2022-07-29T00:31:49;1.53;;;1.43;;
8927;SDS011;4499;48.304;11.902;2022-07-29T00:34:18;2.90;;;1.50;;
8927;SDS011;4499;48.304;11.902;2022-07-29T00:37:18;3.73;;;1.30;;
8927;SDS011;4499;48.304;11.902;2022-07-29T00:39:49;1.37;;;1.27;;
8927;SDS011;4499;48.304;11.902;2022-07-29T00:42:17;2.03;;;1.40;;
8927;SDS011;4499;48.304;11.902;2022-07-29T00:44:46;1.60;;;1.40;;
8927;SDS011;4499;48.304;11.902;2022-07-29T00:47:18;1.80;;;1.50;;
8927;SDS011;4499;48.304;11.902;2022-07-29T00:49:47;2.70;;;1.60;;
8927;SDS011;4499;48.304;11.902;2022-07-29T00:52:15;4.43;;;1.57;;
8927;SDS011;4499;48.304;11.902;2022-07-29T00:54:45;2.13;;;1.53;;
8927;SDS011;4499;48.304;11.902;2022-07-29T00:57:14;2.70;;;1.60;;
8927;SDS011;4499;48.304;11.902;2022-07-29T00:59:42;1.60;;;1.50;;
8927;SDS011;4499;48.304;11.902;2022-07-29T01:02:10;2.10;;;1.67;;
8927;SDS011;4499;48.304;11.902;2022-07-29T01:04:40;2.03;;;1.50;;
8927;SDS011;4499;48.304;11.902;2022-07-29T01:07:08;1.67;;;1.40;;
8927;SDS011;4499;48.304;11.902;2022-07-29T01:09:37;2.60;;;1.70;;
8927;SDS011;4499;48.304;11.902;2022-07-29T01:12:12;2.83;;;1.67;;
8927;SDS011;4499;48.304;11.902;2022-07-29T01:14:42;1.73;;;1.50;;
8927;SDS011;4499;48.304;11.902;2022-07-29T01:17:12;2.67;;;1.57;;
8927;SDS011;4499;48.304;11.902;2022-07-29T01:19:52;2.67;;;1.70;;
8927;SDS011;4499;48.304;11.902;2022-07-29T01:22:27;2.70;;;1.80;;
8927;SDS011;4499;48.304;11.902;2022-07-29T01:25:10;1.90;;;1.60;;
8927;SDS011;4499;48.304;11.902;2022-07-29T01:27:54;3.10;;;1.53;;
8927;SDS011;4499;48.304;11.902;2022-07-29T01:30:39;3.03;;;1.67;;
8927;SDS011;4499;48.304;11.902;2022-07-29T01:33:13;1.90;;;1.60;;
8927;SDS011;4499;48.304;11.902;2022-07-29T01:35:58;2.07;;;1.80;;
8927;SDS011;4499;48.304;11.902;2022-07-29T01:38:28;2.10;;;1.90;;
8927;SDS011;4499;48.304;11.902;2022-07-29T01:40:58;2.00;;;1.70;;
8927;SDS011;4499;48.304;11.902;2022-07-29T01:43:32;3.20;;;1.90;;
8927;SDS011;4499;48.304;11.902;2022-07-29T01:46:09;2.07;;;1.60;;
8927;SDS011;4499;48.304;11.902;2022-07-29T01:48:43;1.30;;;1.30;;
8927;SDS011;4499;48.304;11.902;2022-07-29T01:51:16;3.50;;;1.70;;
8927;SDS011;4499;48.304;11.902;2022-07-29T01:53:49;2.83;;;1.73;;
8927;SDS011;4499;48.304;11.902;2022-07-29T01:56:25;1.90;;;1.80;;
8927;SDS011;4499;48.304;11.902;2022-07-29T01:58:58;2.00;;;1.70;;
8927;SDS011;4499;48.304;11.902;2022-07-29T02:01:31;2.37;;;1.80;;
8927;SDS011;4499;48.304;11.902;2022-07-29T02:04:03;3.20;;;1.60;;
8927;SDS011;4499;48.304;11.902;2022-07-29T02:06:37;2.53;;;1.90;;
8927;SDS011;4499;48.304;11.902;2022-07-29T02:09:08;2.10;;;1.90;;
8927;SDS011;4499;48.304;11.902;2022-07-29T02:11:39;2.60;;;1.80;;
8927;SDS011;4499;48.304;11.902;2022-07-29T02:14:13;1.97;;;1.77;;
8927;SDS011;4499;48.304;11.902;2022-07-29T02:16:45;2.47;;;1.80;;
8927;SDS011;4499;48.304;11.902;2022-07-29T02:19:15;2.40;;;1.80;;
8927;SDS011;4499;48.304;11.902;2022-07-29T02:21:46;3.03;;;1.83;;
8927;SDS011;4499;48.304;11.902;2022-07-29T02:24:15;1.90;;;1.70;;
8927;SDS011;4499;48.304;11.902;2022-07-29T02:26:45;2.90;;;1.90;;
8927;SDS011;4499;48.304;11.902;2022-07-29T02:29:18;3.97;;;1.87;;
8927;SDS011;4499;48.304;11.902;2022-07-29T02:31:50;2.17;;;1.80;;
8927;SDS011;4499;48.304;11.902;2022-07-29T02:34:20;2.03;;;1.83;;
8927;SDS011;4499;48.304;11.902;2022-07-29T02:36:49;3.53;;;2.10;;
8927;SDS011;4499;48.304;11.902;2022-07-29T02:39:20;3.23;;;1.90;;
8927;SDS011;4499;48.304;11.902;2022-07-29T02:41:51;2.07;;;1.77;;
8927;SDS011;4499;48.304;11.902;2022-07-29T02:44:25;2.47;;;2.07;;
8927;SDS011;4499;48.304;11.902;2022-07-29T02:47:04;2.57;;;2.00;;
8927;SDS011;4499;48.304;11.902;2022-07-29T02:49:38;2.17;;;1.90;;
8927;SDS011;4499;48.304;11.902;2022-07-29T02:52:11;2.30;;;1.90;;
8927;SDS011;4499;48.304;11.902;2022-07-29T02:54:45;1.87;;;1.77;;
8927;SDS011;4499;48.304;11.902;2022-07-29T02:57:21;2.10;;;1.90;;
8927;SDS011;4499;48.304;11.902;2022-07-29T02:59:57;2.00;;;1.80;;
8927;SDS011;4499;48.304;11.902;2022-07-29T03:02:32;1.93;;;1.77;;
8927;SDS011;4499;48.304;11.902;2022-07-29T03:05:03;1.70;;;1.60;;
8927;SDS011;4499;48.304;11.902;2022-07-29T03:07:36;1.80;;;1.70;;
8927;SDS011;4499;48.304;11.902;2022-07-29T03:10:06;4.23;;;2.20;;
8927;SDS011;4499;48.304;11.902;2022-07-29T03:12:39;2.63;;;1.80;;
8927;SDS011;4499;48.304;11.902;2022-07-29T03:15:10;2.70;;;1.83;;
8927;SDS011;4499;48.304;11.902;2022-07-29T03:17:40;3.57;;;1.87;;
8927;SDS011;4499;48.304;11.902;2022-07-29T03:20:10;2.33;;;1.80;;
8927;SDS011;4499;48.304;11.902;2022-07-29T03:22:40;2.20;;;2.00;;
8927;SDS011;4499;48.304;11.902;2022-07-29T03:25:10;2.23;;;1.90;;
8927;SDS011;4499;48.304;11.902;2022-07-29T03:27:39;3.63;;;2.10;;
8927;SDS011;4499;48.304;11.902;2022-07-29T03:30:08;2.10;;;1.90;;
8927;SDS011;4499;48.304;11.902;2022-07-29T03:32:45;3.10;;;2.00;;
8927;SDS011;4499;48.304;11.902;2022-07-29T03:35:16;3.30;;;1.80;;
8927;SDS011;4499;48.304;11.902;2022-07-29T03:37:44;2.93;;;2.07;;
8927;SDS011;4499;48.304;11.902;2022-07-29T03:40:13;3.03;;;1.90;;
8927;SDS011;4499;48.304;11.902;2022-07-29T03:42:46;3.30;;;2.07;;
8927;SDS011;4499;48.304;11.902;2022-07-29T03:45:17;2.70;;;1.87;;
8927;SDS011;4499;48.304;11.902;2022-07-29T03:47:48;2.53;;;1.90;;
8927;SDS011;4499;48.304;11.902;2022-07-29T03:50:26;2.40;;;1.97;;
8927;SDS011;4499;48.304;11.902;2022-07-29T03:52:56;4.20;;;2.10;;
8927;SDS011;4499;48.304;11.902;2022-07-29T03:55:25;2.10;;;1.90;;
8927;SDS011;4499;48.304;11.902;2022-07-29T03:57:57;2.80;;;2.00;;
8927;SDS011;4499;48.304;11.902;2022-07-29T04:00:28;3.53;;;2.00;;
8927;SDS011;4499;48.304;11.902;2022-07-29T04:02:58;5.73;;;2.10;;
8927;SDS011;4499;48.304;11.902;2022-07-29T04:05:28;4.53;;;2.13;;
8927;SDS011;4499;48.304;11.902;2022-07-29T04:07:59;4.07;;;2.17;;
8927;SDS011;4499;48.304;11.902;2022-07-29T04:10:27;5.07;;;2.20;;
8927;SDS011;4499;48.304;11.902;2022-07-29T04:12:59;3.27;;;2.20;;
8927;SDS011;4499;48.304;11.902;2022-07-29T04:15:29;2.90;;;2.23;;
8927;SDS011;4499;48.304;11.902;2022-07-29T04:17:59;4.13;;;2.33;;
8927;SDS011;4499;48.304;11.902;2022-07-29T04:20:30;4.43;;;2.50;;
8927;SDS011;4499;48.304;11.902;2022-07-29T04:22:58;3.43;;;2.30;;
8927;SDS011;4499;48.304;11.902;2022-07-29T04:25:26;2.80;;;2.30;;
8927;SDS011;4499;48.304;11.902;2022-07-29T04:27:55;5.93;;;2.37;;
8927;SDS011;4499;48.304;11.902;2022-07-29T04:30:30;2.40;;;2.20;;
8927;SDS011;4499;48.304;11.902;2022-07-29T04:33:01;3.07;;;2.20;;
8927;SDS011;4499;48.304;11.902;2022-07-29T04:35:31;2.60;;;2.33;;
8927;SDS011;4499;48.304;11.902;2022-07-29T04:38:12;3.40;;;2.23;;
8927;SDS011;4499;48.304;11.902;2022-07-29T04:40:42;2.97;;;2.43;;
8927;SDS011;4499;48.304;11.902;2022-07-29T04:43:12;4.47;;;2.30;;
8927;SDS011;4499;48.304;11.902;2022-07-29T04:45:41;2.63;;;2.43;;
8927;SDS011;4499;48.304;11.902;2022-07-29T04:48:11;3.20;;;2.40;;
8927;SDS011;4499;48.304;11.902;2022-07-29T04:50:39;3.33;;;2.33;;
8927;SDS011;4499;48.304;11.902;2022-07-29T04:53:08;3.80;;;2.30;;
8927;SDS011;4499;48.304;11.902;2022-07-29T04:55:36;3.53;;;2.23;;
8927;SDS011;4499;48.304;11.902;2022-07-29T04:58:04;3.00;;;2.27;;
8927;SDS011;4499;48.304;11.902;2022-07-29T05:00:33;3.93;;;2.30;;
8927;SDS011;4499;48.304;11.902;2022-07-29T05:03:02;4.80;;;2.37;;
8927;SDS011;4499;48.304;11.902;2022-07-29T05:05:32;5.43;;;2.30;;
8927;SDS011;4499;48.304;11.902;2022-07-29T05:08:00;2.87;;;2.20;;
8927;SDS011;4499;48.304;11.902;2022-07-29T05:10:31;4.03;;;2.40;;
8927;SDS011;4499;48.304;11.902;2022-07-29T05:13:04;3.23;;;2.23;;
8927;SDS011;4499;48.304;11.902;2022-07-29T05:15:35;2.63;;;2.40;;
8927;SDS011;4499;48.304;11.902;2022-07-29T05:18:03;3.70;;;2.27;;
8927;SDS011;4499;48.304;11.902;2022-07-29T05:20:33;3.80;;;2.23;;
8927;SDS011;4499;48.304;11.902;2022-07-29T05:23:02;3.57;;;2.30;;
8927;SDS011;4499;48.304;11.902;2022-07-29T05:25:31;3.27;;;2.23;;
8927;SDS011;4499;48.304;11.902;2022-07-29T05:28:10;2.63;;;2.40;;
8927;SDS011;4499;48.304;11.902;2022-07-29T05:30:38;3.77;;;2.37;;
8927;SDS011;4499;48.304;11.902;2022-07-29T05:33:06;3.60;;;2.40;;
8927;SDS011;4499;48.304;11.902;2022-07-29T05:35:56;2.03;;;1.80;;
8927;SDS011;4499;48.304;11.902;2022-07-29T05:38:26;4.77;;;1.90;;
8927;SDS011;4499;48.304;11.902;2022-07-29T05:40:56;5.37;;;2.20;;
8927;SDS011;4499;48.304;11.902;2022-07-29T05:43:25;7.07;;;2.20;;
8927;SDS011;4499;48.304;11.902;2022-07-29T05:45:54;2.50;;;2.00;;
8927;SDS011;4499;48.304;11.902;2022-07-29T05:48:23;3.90;;;2.00;;
8927;SDS011;4499;48.304;11.902;2022-07-29T05:50:51;2.87;;;2.10;;
8927;SDS011;4499;48.304;11.902;2022-07-29T05:53:21;3.03;;;2.00;;
8927;SDS011;4499;48.304;11.902;2022-07-29T05:55:49;3.97;;;1.90;;
8927;SDS011;4499;48.304;11.902;2022-07-29T05:58:21;3.53;;;1.70;;
8927;SDS011;4499;48.304;11.902;2022-07-29T06:00:50;2.30;;;1.70;;
8927;SDS011;4499;48.304;11.902;2022-07-29T06:03:19;1.60;;;1.50;;
8927;SDS011;4499;48.304;11.902;2022-07-29T06:05:47;3.30;;;1.60;;
8927;SDS011;4499;48.304;11.902;2022-07-29T06:08:17;2.67;;;1.40;;
8927;SDS011;4499;48.304;11.902;2022-07-29T06:10:53;1.63;;;1.50;;
8927;SDS011;4499;48.304;11.902;2022-07-29T06:13:22;3.00;;;1.50;;
8927;SDS011;4499;48.304;11.902;2022-07-29T06:15:50;1.63;;;1.33;;
8927;SDS011;4499;48.304;11.902;2022-07-29T06:18:18;1.93;;;1.33;;
8927;SDS011;4499;48.304;11.902;2022-07-29T06:20:50;1.50;;;1.40;;
8927;SDS011;4499;48.304;11.902;2022-07-29T06:23:18;1.87;;;1.30;;
8927;SDS011;4499;48.304;11.902;2022-07-29T06:25:50;2.20;;;1.20;;
8927;SDS011;4499;48.304;11.902;2022-07-29T06:28:19;4.23;;;2.10;;
8927;SDS011;4499;48.304;11.902;2022-07-29T06:30:47;1.50;;;1.40;;
8927;SDS011;4499;48.304;11.902;2022-07-29T06:33:18;1.53;;;1.40;;
8927;SDS011;4499;48.304;11.902;2022-07-29T06:35:46;2.30;;;1.50;;
8927;SDS011;4499;48.304;11.902;2022-07-29T06:38:20;3.17;;;1.20;;
8927;SDS011;4499;48.304;11.902;2022-07-29T06:40:58;1.37;;;1.20;;
8927;SDS011;4499;48.304;11.902;2022-07-29T06:43:32;1.33;;;1.23;;
8927;SDS011;4499;48.304;11.902;2022-07-29T06:46:20;1.60;;;1.33;;
8927;SDS011;4499;48.304;11.902;2022-07-29T06:48:49;1.40;;;1.30;;
8927;SDS011;4499;48.304;11.902;2022-07-29T06:51:19;1.33;;;1.23;;
8927;SDS011;4499;48.304;11.902;2022-07-29T06:53:49;1.23;;;1.10;;
8927;SDS011;4499;48.304;11.902;2022-07-29T06:56:29;1.05;;;1.02;;
8927;SDS011;4499;48.304;11.902;2022-07-29T06:59:05;1.35;;;1.20;;
8927;SDS011;4499;48.304;11.902;2022-07-29T07:01:36;1.38;;;1.17;;
8927;SDS011;4499;48.304;11.902;2022-07-29T07:04:05;2.25;;;1.00;;
8927;SDS011;4499;48.304;11.902;2022-07-29T07:06:35;2.20;;;1.33;;
8927;SDS011;4499;48.304;11.902;2022-07-29T07:09:03;2.65;;;1.40;;
8927;SDS011;4499;48.304;11.902;2022-07-29T07:11:33;1.40;;;1.30;;
8927;SDS011;4499;48.304;11.902;2022-07-29T07:14:01;3.70;;;1.50;;
8927;SDS011;4499;48.304;11.902;2022-07-29T07:16:30;1.70;;;1.48;;
8927;SDS011;4499;48.304;11.902;2022-07-29T07:18:59;1.90;;;1.65;;
8927;SDS011;4499;48.304;11.902;2022-07-29T07:21:31;1.73;;;1.63;;
8927;SDS011;4499;48.304;11.902;2022-07-29T07:24:01;2.25;;;1.60;;
8927;SDS011;4499;48.304;11.902;2022-07-29T07:26:29;4.78;;;1.70;;
8927;SDS011;4499;48.304;11.902;2022-07-29T07:28:59;1.95;;;1.60;;
8927;SDS011;4499;48.304;11.902;2022-07-29T07:31:28;1.63;;;1.50;;
8927;SDS011;4499;48.304;11.902;2022-07-29T07:33:56;2.45;;;1.70;;
8927;SDS011;4499;48.304;11.902;2022-07-29T07:36:26;1.75;;;1.45;;
8927;SDS011;4499;48.304;11.902;2022-07-29T07:38:58;1.88;;;1.67;;
8927;SDS011;4499;48.304;11.902;2022-07-29T07:41:26;1.58;;;1.48;;
8927;SDS011;4499;48.304;11.902;2022-07-29T07:43:57;2.13;;;1.30;;
8927;SDS011;4499;48.304;11.902;2022-07-29T07:46:27;1.20;;;1.20;;
8927;SDS011;4499;48.304;11.902;2022-07-29T07:48:55;1.38;;;1.27;;
8927;SDS011;4499;48.304;11.902;2022-07-29T07:51:24;1.65;;;1.40;;
8927;SDS011;4499;48.304;11.902;2022-07-29T07:53:53;3.67;;;1.50;;
8927;SDS011;4499;48.304;11.902;2022-07-29T07:56:23;1.55;;;1.45;;
8927;SDS011;4499;48.304;11.902;2022-07-29T07:58:51;1.50;;;1.40;;
8927;SDS011;4499;48.304;11.902;2022-07-29T08:01:21;1.40;;;1.30;;
8927;SDS011;4499;48.304;11.902;2022-07-29T08:03:49;2.85;;;1.52;;
8927;SDS011;4499;48.304;11.902;2022-07-29T08:06:17;1.48;;;1.38;;
8927;SDS011;4499;48.304;11.902;2022-07-29T08:08:45;1.73;;;1.60;;
8927;SDS011;4499;48.304;11.902;2022-07-29T08:11:14;1.95;;;1.85;;
8927;SDS011;4499;48.304;11.902;2022-07-29T08:13:43;1.92;;;1.58;;
8927;SDS011;4499;48.304;11.902;2022-07-29T08:16:13;3.40;;;1.60;;
8927;SDS011;4499;48.304;11.902;2022-07-29T08:18:44;2.15;;;1.40;;
8927;SDS011;4499;48.304;11.902;2022-07-29T08:21:13;1.60;;;1.50;;
8927;SDS011;4499;48.304;11.902;2022-07-29T08:23:43;1.40;;;1.35;;
8927;SDS011;4499;48.304;11.902;2022-07-29T08:26:26;1.60;;;1.50;;
8927;SDS011;4499;48.304;11.902;2022-07-29T08:28:54;2.25;;;1.30;;
8927;SDS011;4499;48.304;11.902;2022-07-29T08:31:22;2.65;;;1.50;;
8927;SDS011;4499;48.304;11.902;2022-07-29T08:33:55;2.65;;;1.50;;
8927;SDS011;4499;48.304;11.902;2022-07-29T08:36:26;1.60;;;1.50;;
8927;SDS011;4499;48.304;11.902;2022-07-29T08:38:54;3.00;;;1.70;;
8927;SDS011;4499;48.304;11.902;2022-07-29T08:41:23;2.28;;;1.48;;
8927;SDS011;4499;48.304;11.902;2022-07-29T08:43:51;3.80;;;1.58;;
8927;SDS011;4499;48.304;11.902;2022-07-29T08:46:20;1.67;;;1.58;;
8927;SDS011;4499;48.304;11.902;2022-07-29T08:48:49;1.48;;;1.38;;
8927;SDS011;4499;48.304;11.902;2022-07-29T08:51:20;1.50;;;1.40;;
8927;SDS011;4499;48.304;11.902;2022-07-29T08:53:53;4.68;;;1.58;;
8927;SDS011;4499;48.304;11.902;2022-07-29T08:56:22;2.53;;;1.70;;
8927;SDS011;4499;48.304;11.902;2022-07-29T08:58:52;1.45;;;1.35;;
8927;SDS011;4499;48.304;11.902;2022-07-29T09:01:22;1.70;;;1.58;;
8927;SDS011;4499;48.304;11.902;2022-07-29T09:04:03;2.08;;;1.50;;
8927;SDS011;4499;48.304;11.902;2022-07-29T09:06:34;1.83;;;1.50;;
8927;SDS011;4499;48.304;11.902;2022-07-29T09:09:07;1.77;;;1.40;;
8927;SDS011;4499;48.304;11.902;2022-07-29T09:11:35;4.50;;;1.60;;
8927;SDS011;4499;48.304;11.902;2022-07-29T09:14:04;2.67;;;1.67;;
8927;SDS011;4499;48.304;11.902;2022-07-29T09:16:45;2.25;;;1.48;;
8927;SDS011;4499;48.304;11.902;2022-07-29T09:19:27;1.60;;;1.50;;
8927;SDS011;4499;48.304;11.902;2022-07-29T09:21:59;4.47;;;1.50;;
8927;SDS011;4499;48.304;11.902;2022-07-29T09:24:40;2.15;;;1.70;;
8927;SDS011;4499;48.304;11.902;2022-07-29T09:27:19;2.00;;;1.73;;
8927;SDS011;4499;48.304;11.902;2022-07-29T09:29:55;2.92;;;1.50;;
8927;SDS011;4499;48.304;11.902;2022-07-29T09:32:25;1.65;;;1.40;;
8927;SDS011;4499;48.304;11.902;2022-07-29T09:37:45;1.75;;;1.50;;
8927;SDS011;4499;48.304;11.902;2022-07-29T09:40:15;2.88;;;1.40;;
8927;SDS011;4499;48.304;11.902;2022-07-29T09:42:45;1.45;;;1.30;;
8927;SDS011;4499;48.304;11.902;2022-07-29T09:45:25;2.90;;;1.55;;
8927;SDS011;4499;48.304;11.902;2022-07-29T09:47:54;1.95;;;1.52;;
8927;SDS011;4499;48.304;11.902;2022-07-29T09:50:35;3.72;;;1.70;;
8927;SDS011;4499;48.304;11.902;2022-07-29T09:53:05;1.90;;;1.63;;
8927;SDS011;4499;48.304;11.902;2022-07-29T09:55:45;4.10;;;1.80;;
8927;SDS011;4499;48.304;11.902;2022-07-29T09:58:17;3.90;;;1.85;;
8927;SDS011;4499;48.304;11.902;2022-07-29T10:00:49;2.83;;;1.70;;
8927;SDS011;4499;48.304;11.902;2022-07-29T10:03:18;3.47;;;1.80;;
8927;SDS011;4499;48.304;11.902;2022-07-29T10:06:03;2.60;;;1.80;;
8927;SDS011;4499;48.304;11.902;2022-07-29T10:08:37;4.97;;;2.15;;
8927;SDS011;4499;48.304;11.902;2022-07-29T10:11:10;1.98;;;1.83;;
8927;SDS011;4499;48.304;11.902;2022-07-29T10:13:40;6.35;;;1.80;;
8927;SDS011;4499;48.304;11.902;2022-07-29T10:16:09;2.83;;;2.08;;
8927;SDS011;4499;48.304;11.902;2022-07-29T10:18:39;2.63;;;1.83;;
8927;SDS011;4499;48.304;11.902;2022-07-29T10:21:09;3.78;;;1.80;;
8927;SDS011;4499;48.304;11.902;2022-07-29T10:23:59;2.63;;;1.60;;
8927;SDS011;4499;48.304;11.902;2022-07-29T10:26:28;2.83;;;1.90;;
8927;SDS011;4499;48.304;11.902;2022-07-29T10:28:57;3.65;;;1.90;;
8927;SDS011;4499;48.304;11.902;2022-07-29T10:31:28;2.28;;;1.70;;
8927;SDS011;4499;48.304;11.902;2022-07-29T10:34:06;2.90;;;1.77;;
8927;SDS011;4499;48.304;11.902;2022-07-29T10:36:46;2.88;;;1.80;;
8927;SDS011;4499;48.304;11.902;2022-07-29T10:39:27;3.10;;;1.75;;
8927;SDS011;4499;48.304;11.902;2022-07-29T10:42:16;2.20;;;1.80;;
8927;SDS011;4499;48.304;11.902;2022-07-29T10:44:59;3.97;;;1.80;;
8927;SDS011;4499;48.304;11.902;2022-07-29T10:47:31;3.58;;;1.70;;
8927;SDS011;4499;48.304;11.902;2022-07-29T10:50:01;2.10;;;1.63;;
8927;SDS011;4499;48.304;11.902;2022-07-29T10:55:35;3.67;;;1.70;;
8927;SDS011;4499;48.304;11.902;2022-07-29T10:58:13;2.53;;;1.95;;
8927;SDS011;4499;48.304;11.902;2022-07-29T11:00:44;3.60;;;1.85;;
8927;SDS011;4499;48.304;11.902;2022-07-29T11:06:17;5.10;;;2.20;;
8927;SDS011;4499;48.304;11.902;2022-07-29T11:12:01;2.75;;;1.73;;
8927;SDS011;4499;48.304;11.902;2022-07-29T11:17:24;5.15;;;1.90;;
8927;SDS011;4499;48.304;11.902;2022-07-29T11:20:31;3.88;;;1.83;;
8927;SDS011;4499;48.304;11.902;2022-07-29T11:23:22;2.33;;;1.80;;
8927;SDS011;4499;48.304;11.902;2022-07-29T11:26:12;2.38;;;1.90;;
8927;SDS011;4499;48.304;11.902;2022-07-29T11:29:05;3.35;;;2.10;;
8927;SDS011;4499;48.304;11.902;2022-07-29T11:32:08;4.30;;;1.98;;
8927;SDS011;4499;48.304;11.902;2022-07-29T11:38:24;6.10;;;2.10;;
8927;SDS011;4499;48.304;11.902;2022-07-29T11:43:52;2.40;;;2.10;;
8927;SDS011;4499;48.304;11.902;2022-07-29T11:49:18;5.35;;;2.20;;
8927;SDS011;4499;48.304;11.902;2022-07-29T11:51:58;3.70;;;2.13;;
8927;SDS011;4499;48.304;11.902;2022-07-29T11:54:36;3.67;;;2.03;;
8927;SDS011;4499;48.304;11.902;2022-07-29T11:57:23;3.80;;;2.10;;
8927;SDS011;4499;48.304;11.902;2022-07-29T12:00:04;2.78;;;2.20;;
8927;SDS011;4499;48.304;11.902;2022-07-29T12:02:40;3.33;;;1.85;;
8927;SDS011;4499;48.304;11.902;2022-07-29T12:05:14;2.20;;;1.88;;
8927;SDS011;4499;48.304;11.902;2022-07-29T12:08:13;4.30;;;2.05;;
8927;SDS011;4499;48.304;11.902;2022-07-29T12:10:42;4.07;;;2.20;;
8927;SDS011;4499;48.304;11.902;2022-07-29T12:13:14;2.95;;;2.10;;
8927;SDS011;4499;48.304;11.902;2022-07-29T12:15:53;4.45;;;2.22;;
8927;SDS011;4499;48.304;11.902;2022-07-29T12:18:26;5.43;;;2.20;;
8927;SDS011;4499;48.304;11.902;2022-07-29T12:20:58;2.30;;;2.08;;
8927;SDS011;4499;48.304;11.902;2022-07-29T12:23:30;4.32;;;2.00;;
8927;SDS011;4499;48.304;11.902;2022-07-29T12:26:00;3.13;;;2.00;;
8927;SDS011;4499;48.304;11.902;2022-07-29T12:28:36;2.85;;;1.80;;
8927;SDS011;4499;48.304;11.902;2022-07-29T12:31:05;3.30;;;1.98;;
8927;SDS011;4499;48.304;11.902;2022-07-29T12:34:01;3.47;;;1.90;;
8927;SDS011;4499;48.304;11.902;2022-07-29T12:36:30;2.97;;;1.90;;
8927;SDS011;4499;48.304;11.902;2022-07-29T12:38:58;2.53;;;1.90;;
8927;SDS011;4499;48.304;11.902;2022-07-29T12:41:28;6.28;;;2.15;;
8927;SDS011;4499;48.304;11.902;2022-07-29T12:43:56;5.47;;;1.80;;
8927;SDS011;4499;48.304;11.902;2022-07-29T12:46:25;3.00;;;1.75;;
8927;SDS011;4499;48.304;11.902;2022-07-29T12:48:54;5.47;;;2.03;;
8927;SDS011;4499;48.304;11.902;2022-07-29T12:51:29;2.38;;;1.75;;
8927;SDS011;4499;48.304;11.902;2022-07-29T12:54:03;3.53;;;1.77;;
8927;SDS011;4499;48.304;11.902;2022-07-29T12:56:33;4.33;;;1.80;;
8927;SDS011;4499;48.304;11.902;2022-07-29T13:00:03;2.17;;;1.73;;
8927;SDS011;4499;48.304;11.902;2022-07-29T13:02:33;4.70;;;2.00;;
8927;SDS011;4499;48.304;11.902;2022-07-29T13:05:03;3.30;;;1.87;;
8927;SDS011;4499;48.304;11.902;2022-07-29T13:07:32;4.93;;;1.90;;
8927;SDS011;4499;48.304;11.902;2022-07-29T13:10:20;3.57;;;1.90;;
8927;SDS011;4499;48.304;11.902;2022-07-29T13:13:04;4.80;;;2.10;;
8927;SDS011;4499;48.304;11.902;2022-07-29T13:15:36;2.37;;;1.70;;
8927;SDS011;4499;48.304;11.902;2022-07-29T13:18:05;2.30;;;1.90;;
8927;SDS011;4499;48.304;11.902;2022-07-29T13:20:53;4.50;;;2.13;;
8927;SDS011;4499;48.304;11.902;2022-07-29T13:23:22;4.80;;;1.80;;
8927;SDS011;4499;48.304;11.902;2022-07-29T13:25:50;5.63;;;1.93;;
8927;SDS011;4499;48.304;11.902;2022-07-29T13:28:20;4.13;;;1.87;;
8927;SDS011;4499;48.304;11.902;2022-07-29T13:30:50;5.63;;;1.83;;
8927;SDS011;4499;48.304;11.902;2022-07-29T13:33:18;3.63;;;1.70;;
8927;SDS011;4499;48.304;11.902;2022-07-29T13:35:46;4.50;;;2.47;;
8927;SDS011;4499;48.304;11.902;2022-07-29T13:38:15;3.53;;;2.20;;
8927;SDS011;4499;48.304;11.902;2022-07-29T13:40:45;4.50;;;1.87;;
8927;SDS011;4499;48.304;11.902;2022-07-29T13:43:14;5.97;;;2.00;;
8927;SDS011;4499;48.304;11.902;2022-07-29T13:45:42;2.10;;;1.87;;
8927;SDS011;4499;48.304;11.902;2022-07-29T13:48:12;4.73;;;2.03;;
8927;SDS011;4499;48.304;11.902;2022-07-29T13:50:40;2.33;;;1.90;;
8927;SDS011;4499;48.304;11.902;2022-07-29T13:53:09;6.83;;;2.00;;
8927;SDS011;4499;48.304;11.902;2022-07-29T13:55:43;4.27;;;1.87;;
8927;SDS011;4499;48.304;11.902;2022-07-29T13:58:13;4.43;;;1.70;;
8927;SDS011;4499;48.304;11.902;2022-07-29T14:00:41;4.27;;;2.00;;
8927;SDS011;4499;48.304;11.902;2022-07-29T14:03:10;2.70;;;1.90;;
8927;SDS011;4499;48.304;11.902;2022-07-29T14:05:39;3.83;;;1.90;;
8927;SDS011;4499;48.304;11.902;2022-07-29T14:08:07;4.20;;;2.10;;
8927;SDS011;4499;48.304;11.902;2022-07-29T14:10:36;2.20;;;1.90;;
8927;SDS011;4499;48.304;11.902;2022-07-29T14:13:05;3.70;;;2.00;;
8927;SDS011;4499;48.304;11.902;2022-07-29T14:15:50;2.63;;;2.00;;
8927;SDS011;4499;48.304;11.902;2022-07-29T14:18:20;5.73;;;2.13;;
8927;SDS011;4499;48.304;11.902;2022-07-29T14:20:48;3.50;;;2.00;;
8927;SDS011;4499;48.304;11.902;2022-07-29T14:23:17;3.37;;;2.00;;
8927;SDS011;4499;48.304;11.902;2022-07-29T14:25:45;3.57;;;2.20;;
8927;SDS011;4499;48.304;11.902;2022-07-29T14:28:14;5.70;;;2.10;;
8927;SDS011;4499;48.304;11.902;2022-07-29T14:30:43;4.97;;;2.20;;
8927;SDS011;4499;48.304;11.902;2022-07-29T14:33:11;3.50;;;1.97;;
8927;SDS011;4499;48.304;11.902;2022-07-29T14:35:41;5.70;;;2.20;;
8927;SDS011;4499;48.304;11.902;2022-07-29T14:38:09;2.57;;;1.90;;
8927;SDS011;4499;48.304;11.902;2022-07-29T14:40:39;4.50;;;2.17;;
8927;SDS011;4499;48.304;11.902;2022-07-29T14:43:07;3.90;;;1.90;;
8927;SDS011;4499;48.304;11.902;2022-07-29T14:45:36;5.63;;;2.00;;
8927;SDS011;4499;48.304;11.902;2022-07-29T14:48:27;3.73;;;1.93;;
8927;SDS011;4499;48.304;11.902;2022-07-29T14:50:56;4.60;;;2.10;;
8927;SDS011;4499;48.304;11.902;2022-07-29T14:53:30;2.33;;;2.00;;
8927;SDS011;4499;48.304;11.902;2022-07-29T14:55:59;2.97;;;1.97;;
8927;SDS011;4499;48.304;11.902;2022-07-29T14:58:47;3.87;;;1.83;;
8927;SDS011;4499;48.304;11.902;2022-07-29T15:01:17;5.63;;;1.90;;
8927;SDS011;4499;48.304;11.902;2022-07-29T15:03:45;2.97;;;2.20;;
8927;SDS011;4499;48.304;11.902;2022-07-29T15:06:15;4.23;;;2.00;;
8927;SDS011;4499;48.304;11.902;2022-07-29T15:08:43;2.27;;;1.70;;
8927;SDS011;4499;48.304;11.902;2022-07-29T15:11:11;6.60;;;2.20;;
8927;SDS011;4499;48.304;11.902;2022-07-29T15:13:41;5.37;;;2.20;;
8927;SDS011;4499;48.304;11.902;2022-07-29T15:16:09;4.53;;;2.20;;
8927;SDS011;4499;48.304;11.902;2022-07-29T15:18:39;3.50;;;2.00;;
8927;SDS011;4499;48.304;11.902;2022-07-29T15:21:08;3.80;;;2.00;;
8927;SDS011;4499;48.304;11.902;2022-07-29T15:23:37;6.03;;;2.10;;
8927;SDS011;4499;48.304;11.902;2022-07-29T15:26:06;3.20;;;2.00;;
8927;SDS011;4499;48.304;11.902;2022-07-29T15:28:34;6.53;;;2.50;;
8927;SDS011;4499;48.304;11.902;2022-07-29T15:31:02;3.33;;;1.73;;
8927;SDS011;4499;48.304;11.902;2022-07-29T15:33:31;4.43;;;2.00;;
8927;SDS011;4499;48.304;11.902;2022-07-29T15:35:59;3.80;;;1.90;;
8927;SDS011;4499;48.304;11.902;2022-07-29T15:38:27;2.37;;;2.07;;
8927;SDS011;4499;48.304;11.902;2022-07-29T15:40:57;4.10;;;2.00;;
8927;SDS011;4499;48.304;11.902;2022-07-29T15:43:26;2.13;;;1.80;;
8927;SDS011;4499;48.304;11.902;2022-07-29T15:46:00;5.00;;;2.10;;
8927;SDS011;4499;48.304;11.902;2022-07-29T15:48:46;2.70;;;2.00;;
8927;SDS011;4499;48.304;11.902;2022-07-29T15:51:14;5.23;;;2.30;;
8927;SDS011;4499;48.304;11.902;2022-07-29T15:53:48;3.03;;;2.03;;
8927;SDS011;4499;48.304;11.902;2022-07-29T15:56:24;4.60;;;2.27;;